Time;durP1;ratioP1;P1;durP2;ratioP2;P2;SDS_P1;SDS_P2;PMS_P1;PMS_P2;Temp;Humidity;BMP_temperature;BMP_pressure;BME280_temperature;BME280_humidity;BME280_pressure;Samples;Min_cycle;Max_cycle;Signal;HPM_P1;HPM_P2
2023/05/30 00:01:19;;;;;;;11.82;3.92;;;10.10;99.90;;;;;;5054035;28;20212;-61
2023/05/30 00:03:47;;;;;;;15.20;4.05;;;10.10;99.90;;;;;;5054000;28;20273;-61
2023/05/30 00:06:14;;;;;;;9.95;3.70;;;10.10;99.90;;;;;;5054007;28;20297;-60
2023/05/30 00:08:41;;;;;;;10.98;2.85;;;10.00;99.90;;;;;;5053710;28;20233;-61
2023/05/30 00:11:08;;;;;;;19.88;4.57;;;10.00;99.90;;;;;;5053097;28;20212;-61
2023/05/30 00:13:35;;;;;;;9.75;3.40;;;9.90;99.90;;;;;;5053148;28;20212;-62
2023/05/30 00:16:03;;;;;;;13.23;3.55;;;9.90;99.90;;;;;;5052720;28;20221;-60
2023/05/30 00:18:34;;;;;;;11.73;4.15;;;9.90;99.90;;;;;;5053128;28;20594;-60
2023/05/30 00:21:02;;;;;;;13.60;5.00;;;9.80;99.90;;;;;;5052931;28;20747;-62
2023/05/30 00:23:29;;;;;;;15.10;4.32;;;9.80;99.90;;;;;;5052986;28;20236;-61
2023/05/30 00:25:57;;;;;;;15.32;3.83;;;9.70;99.90;;;;;;5053225;28;20295;-62
2023/05/30 00:28:24;;;;;;;15.82;4.80;;;9.70;99.90;;;;;;5056276;28;20235;-62
2023/05/30 00:30:51;;;;;;;15.88;5.03;;;9.70;99.90;;;;;;5057046;28;20201;-62
2023/05/30 00:33:20;;;;;;;11.35;3.70;;;9.70;99.90;;;;;;5056742;28;20221;-61
2023/05/30 00:35:47;;;;;;;11.57;3.40;;;9.70;99.90;;;;;;5057250;28;20204;-60
2023/05/30 00:38:14;;;;;;;10.32;3.92;;;9.60;99.90;;;;;;5056839;28;20226;-61
2023/05/30 00:40:40;;;;;;;19.55;4.20;;;9.60;99.90;;;;;;5057266;28;20212;-61
2023/05/30 00:43:07;;;;;;;10.15;4.10;;;9.60;99.90;;;;;;5056731;28;20197;-61
2023/05/30 00:45:35;;;;;;;10.45;4.40;;;9.50;99.90;;;;;;5057174;28;20205;-62
2023/05/30 00:48:02;;;;;;;10.20;3.80;;;9.50;99.90;;;;;;5056864;28;20220;-61
2023/05/30 00:50:31;;;;;;;9.45;3.72;;;9.50;99.90;;;;;;5057021;28;20208;-61
2023/05/30 00:52:58;;;;;;;8.68;3.17;;;9.40;99.90;;;;;;5058124;28;20204;-61
2023/05/30 00:55:27;;;;;;;14.48;5.45;;;9.40;99.90;;;;;;5059272;28;20201;-61
2023/05/30 00:57:54;;;;;;;12.48;3.97;;;9.40;99.90;;;;;;5059982;28;20228;-59
2023/05/30 01:00:24;;;;;;;10.93;3.83;;;9.40;99.90;;;;;;5063240;28;20205;-59
2023/05/30 01:02:56;;;;;;;12.82;3.90;;;9.30;99.90;;;;;;5056679;28;20255;-60
2023/05/30 01:05:24;;;;;;;18.52;4.20;;;9.30;99.90;;;;;;5056074;28;20189;-59
2023/05/30 01:07:53;;;;;;;9.07;3.80;;;9.30;99.90;;;;;;5055809;28;20279;-60
2023/05/30 01:10:21;;;;;;;12.20;3.80;;;9.20;99.90;;;;;;5056085;28;20600;-60
2023/05/30 01:12:59;;;;;;;10.18;3.70;;;9.20;99.90;;;;;;5055539;28;20617;-60
2023/05/30 01:15:31;;;;;;;7.50;4.32;;;9.20;99.90;;;;;;5056336;28;20190;-59
2023/05/30 01:18:04;;;;;;;14.10;4.18;;;9.20;99.90;;;;;;5055781;28;20568;-59
2023/05/30 01:20:37;;;;;;;10.43;4.25;;;9.20;99.90;;;;;;5055924;28;20190;-59
2023/05/30 01:23:27;;;;;;;18.80;4.88;;;9.10;99.90;;;;;;5056048;28;20212;-59
2023/05/30 01:26:07;;;;;;;10.57;3.97;;;9.10;99.90;;;;;;5055623;28;20217;-59
2023/05/30 01:28:38;;;;;;;11.48;4.65;;;9.10;99.90;;;;;;5055236;28;20229;-60
2023/05/30 01:31:06;;;;;;;11.13;3.95;;;9.10;99.90;;;;;;5055394;28;20186;-59
2023/05/30 01:33:34;;;;;;;12.90;4.78;;;9.10;99.90;;;;;;5055611;28;20591;-59
2023/05/30 01:36:00;;;;;;;11.57;4.35;;;9.10;99.90;;;;;;5055315;28;20205;-60
2023/05/30 01:38:27;;;;;;;16.33;4.97;;;9.00;99.90;;;;;;5054683;28;20222;-59
2023/05/30 01:40:57;;;;;;;9.70;3.53;;;9.00;99.90;;;;;;5055466;28;20205;-59
2023/05/30 01:43:39;;;;;;;8.77;3.70;;;9.00;99.90;;;;;;5055463;28;20201;-59
2023/05/30 01:46:15;;;;;;;15.32;4.25;;;8.90;99.90;;;;;;5055352;28;20185;-59
2023/05/30 01:48:53;;;;;;;10.30;4.93;;;8.90;99.90;;;;;;5054962;28;20225;-61
2023/05/30 01:51:27;;;;;;;22.05;4.70;;;8.90;99.90;;;;;;5054976;28;20190;-59
2023/05/30 01:53:59;;;;;;;11.48;4.47;;;8.90;99.90;;;;;;5055262;28;20190;-59
2023/05/30 01:56:28;;;;;;;15.57;4.40;;;8.90;99.90;;;;;;5055080;28;20190;-61
2023/05/30 01:58:57;;;;;;;14.88;4.90;;;8.80;99.90;;;;;;5054876;28;20221;-59
2023/05/30 02:01:26;;;;;;;19.00;7.40;;;8.80;99.90;;;;;;5055127;28;20227;-59
2023/05/30 02:03:53;;;;;;;12.30;4.82;;;8.80;99.90;;;;;;5055060;28;20228;-60
2023/05/30 02:06:20;;;;;;;13.90;5.15;;;8.80;99.90;;;;;;5055495;28;20209;-59
2023/05/30 02:08:47;;;;;;;19.55;5.72;;;8.80;99.90;;;;;;5054844;28;20225;-59
2023/05/30 02:11:14;;;;;;;15.50;4.85;;;8.80;99.90;;;;;;5054953;28;20228;-59
2023/05/30 02:13:41;;;;;;;12.10;5.32;;;8.80;99.90;;;;;;5054895;28;20275;-60
2023/05/30 02:16:09;;;;;;;17.98;4.57;;;8.80;99.90;;;;;;5054889;28;20209;-59
2023/05/30 02:18:36;;;;;;;22.92;5.25;;;8.70;99.90;;;;;;5054339;28;20225;-59
2023/05/30 02:21:03;;;;;;;21.10;5.28;;;8.70;99.90;;;;;;5054890;28;20635;-59
2023/05/30 02:23:30;;;;;;;12.27;4.40;;;8.70;99.90;;;;;;5054577;28;20198;-60
2023/05/30 02:25:57;;;;;;;9.30;3.88;;;8.70;99.90;;;;;;5054682;28;20212;-59
2023/05/30 02:28:24;;;;;;;12.05;5.50;;;8.70;99.90;;;;;;5054349;28;20245;-58
2023/05/30 02:30:50;;;;;;;13.07;4.90;;;8.60;99.90;;;;;;5054716;28;20201;-59
2023/05/30 02:33:18;;;;;;;13.50;5.00;;;8.60;99.90;;;;;;5054529;28;20602;-59
2023/05/30 02:35:45;;;;;;;15.68;5.45;;;8.60;99.90;;;;;;5054288;28;20643;-60
2023/05/30 02:38:12;;;;;;;14.93;4.75;;;8.60;99.90;;;;;;5054177;28;20221;-59
2023/05/30 02:40:39;;;;;;;21.15;4.90;;;8.60;99.90;;;;;;5053784;28;20574;-60
2023/05/30 02:43:06;;;;;;;9.90;4.45;;;8.60;99.90;;;;;;5054404;28;20228;-59
2023/05/30 02:45:33;;;;;;;15.00;5.20;;;8.60;99.90;;;;;;5054243;28;20275;-59
2023/05/30 02:47:59;;;;;;;15.25;5.70;;;8.60;99.90;;;;;;5054112;28;20560;-59
2023/05/30 02:50:28;;;;;;;10.27;5.10;;;8.60;99.90;;;;;;5052864;28;20217;-59
2023/05/30 02:52:54;;;;;;;13.93;4.32;;;8.60;99.90;;;;;;5053886;28;20583;-58
2023/05/30 02:55:21;;;;;;;14.02;4.78;;;8.50;99.90;;;;;;5053726;28;20216;-60
2023/05/30 02:57:48;;;;;;;14.45;5.10;;;8.60;99.90;;;;;;5053592;28;20240;-60
2023/05/30 03:00:16;;;;;;;14.95;5.20;;;8.50;99.90;;;;;;5053881;28;20201;-60
2023/05/30 03:02:43;;;;;;;16.50;5.10;;;8.50;99.90;;;;;;5053819;28;20209;-59
2023/05/30 03:05:10;;;;;;;9.25;4.53;;;8.50;99.90;;;;;;5053810;28;20208;-59
2023/05/30 03:07:38;;;;;;;18.88;6.13;;;8.50;99.90;;;;;;5053471;28;20221;-59
2023/05/30 03:10:06;;;;;;;22.83;5.15;;;8.50;99.90;;;;;;5054034;28;20208;-60
2023/05/30 03:12:32;;;;;;;10.00;3.90;;;8.50;99.90;;;;;;5053777;28;20201;-60
2023/05/30 03:14:59;;;;;;;17.80;4.65;;;8.60;99.90;;;;;;5053675;28;20205;-60
2023/05/30 03:17:26;;;;;;;18.73;5.35;;;8.60;99.90;;;;;;5053489;28;20228;-60
2023/05/30 03:19:53;;;;;;;18.23;5.65;;;8.60;99.90;;;;;;5054370;28;20204;-60
2023/05/30 03:22:20;;;;;;;19.42;4.90;;;8.60;99.90;;;;;;5053835;28;20205;-59
2023/05/30 03:24:48;;;;;;;12.70;4.88;;;8.60;99.90;;;;;;5054362;28;20202;-59
2023/05/30 03:27:15;;;;;;;14.68;4.50;;;8.60;99.90;;;;;;5052984;28;20677;-60
2023/05/30 03:29:42;;;;;;;10.23;4.53;;;8.60;99.90;;;;;;5054104;28;20185;-59
2023/05/30 03:32:09;;;;;;;12.30;6.05;;;8.60;99.90;;;;;;5053464;28;20205;-60
2023/05/30 03:34:36;;;;;;;14.65;4.95;;;8.70;99.90;;;;;;5053364;28;20231;-60
2023/05/30 03:37:03;;;;;;;10.55;4.45;;;8.70;99.90;;;;;;5053259;28;20232;-60
2023/05/30 03:39:30;;;;;;;15.38;4.88;;;8.70;99.90;;;;;;5052761;28;20228;-60
2023/05/30 03:41:58;;;;;;;11.20;4.95;;;8.80;99.90;;;;;;5053227;28;20201;-59
2023/05/30 03:44:25;;;;;;;20.85;5.50;;;8.80;99.90;;;;;;5052766;28;20212;-60
2023/05/30 03:46:52;;;;;;;13.05;5.45;;;8.90;99.90;;;;;;5052899;28;20204;-60
2023/05/30 03:49:18;;;;;;;20.90;6.13;;;8.90;99.90;;;;;;5053084;28;20221;-62
2023/05/30 03:51:45;;;;;;;20.85;7.53;;;9.00;99.90;;;;;;5053012;28;20214;-60
2023/05/30 03:54:12;;;;;;;17.50;6.18;;;9.10;99.90;;;;;;5053113;28;20205;-60
2023/05/30 03:56:39;;;;;;;10.55;4.40;;;9.20;99.90;;;;;;5052841;28;20201;-60
2023/05/30 03:59:07;;;;;;;13.85;5.03;;;9.40;99.90;;;;;;5052485;28;20707;-61
2023/05/30 04:01:34;;;;;;;10.57;4.18;;;9.60;99.90;;;;;;5052180;28;20737;-60
2023/05/30 04:04:01;;;;;;;12.55;5.72;;;9.80;99.90;;;;;;5052489;28;20209;-60
2023/05/30 04:06:28;;;;;;;16.02;4.95;;;9.80;99.90;;;;;;5052773;28;20202;-60
2023/05/30 04:11:48;;;;;;;12.70;4.22;;;9.90;99.90;;;;;;5091016;28;20607;-60
2023/05/30 04:14:15;;;;;;;9.23;5.20;;;10.00;99.90;;;;;;5090699;28;20205;-59
2023/05/30 04:16:41;;;;;;;13.00;4.87;;;10.10;99.90;;;;;;5090137;28;20959;-59
2023/05/30 04:19:08;;;;;;;9.60;4.37;;;10.20;99.90;;;;;;5089961;28;20455;-60
2023/05/30 04:21:35;;;;;;;12.93;3.93;;;10.30;99.90;;;;;;5089852;28;20454;-60
2023/05/30 04:24:03;;;;;;;11.93;5.00;;;10.30;99.90;;;;;;5090197;28;20442;-60
2023/05/30 04:26:31;;;;;;;14.50;4.60;;;10.30;99.90;;;;;;5090254;28;20442;-60
2023/05/30 04:28:59;;;;;;;13.43;4.63;;;10.30;99.90;;;;;;5089928;28;20470;-60
2023/05/30 04:31:26;;;;;;;11.43;5.15;;;10.30;99.90;;;;;;5090010;28;20821;-59
2023/05/30 04:33:54;;;;;;;13.20;4.50;;;10.30;99.90;;;;;;5089755;28;20211;-59
2023/05/30 04:36:21;;;;;;;12.77;4.40;;;10.30;99.90;;;;;;5089986;28;20446;-59
2023/05/30 04:38:49;;;;;;;12.37;4.93;;;10.30;99.90;;;;;;5089582;28;20830;-59
2023/05/30 04:41:20;;;;;;;10.97;4.03;;;10.20;99.90;;;;;;5089584;28;20948;-60
2023/05/30 04:43:52;;;;;;;11.50;4.43;;;10.20;99.90;;;;;;5089640;28;20427;-57
2023/05/30 04:46:22;;;;;;;9.10;4.67;;;10.20;99.90;;;;;;5089654;28;20476;-60
2023/05/30 04:48:52;;;;;;;14.97;4.47;;;10.30;99.90;;;;;;5089628;28;20493;-60
2023/05/30 04:51:19;;;;;;;7.17;3.50;;;10.50;99.90;;;;;;5089618;28;20479;-60
2023/05/30 04:53:46;;;;;;;12.97;4.17;;;10.80;99.90;;;;;;5089703;28;20472;-59
2023/05/30 04:56:12;;;;;;;12.57;5.03;;;10.90;99.90;;;;;;5089409;28;20446;-59
2023/05/30 04:58:39;;;;;;;8.57;3.57;;;11.00;99.90;;;;;;5089475;28;20454;-60
2023/05/30 05:01:09;;;;;;;7.80;3.73;;;11.20;99.90;;;;;;5089019;28;20449;-60
2023/05/30 05:03:38;;;;;;;10.03;4.67;;;11.40;99.90;;;;;;5089111;28;20944;-60
2023/05/30 05:06:06;;;;;;;12.77;4.33;;;11.40;99.90;;;;;;5089265;28;20500;-59
2023/05/30 05:08:33;;;;;;;8.50;3.60;;;11.50;99.90;;;;;;5089277;28;20489;-60
2023/05/30 05:11:01;;;;;;;18.07;4.23;;;11.60;99.90;;;;;;5088568;28;20516;-60
2023/05/30 05:13:27;;;;;;;14.83;4.13;;;11.80;99.90;;;;;;5089097;28;20449;-60
2023/05/30 05:15:55;;;;;;;7.63;3.60;;;12.20;99.90;;;;;;5088865;28;20446;-60
2023/05/30 05:18:22;;;;;;;12.10;4.47;;;12.50;99.90;;;;;;5088629;28;20849;-60
2023/05/30 05:20:50;;;;;;;7.40;3.30;;;12.60;99.90;;;;;;5088973;28;20830;-60
2023/05/30 05:23:17;;;;;;;15.63;4.80;;;12.50;99.90;;;;;;5074562;28;20458;-60
2023/05/30 05:25:44;;;;;;;12.10;3.83;;;12.50;99.90;;;;;;5075266;28;20451;-60
2023/05/30 05:28:11;;;;;;;7.30;3.27;;;12.70;99.90;;;;;;5075196;28;20490;-62
2023/05/30 05:30:38;;;;;;;13.50;4.17;;;12.90;99.90;;;;;;5075104;28;20474;-60
2023/05/30 05:33:05;;;;;;;9.20;4.67;;;12.90;99.90;;;;;;5075121;28;20454;-60
2023/05/30 05:35:31;;;;;;;8.90;4.20;;;12.90;99.90;;;;;;5075209;28;20442;-60
2023/05/30 05:38:00;;;;;;;9.87;3.70;;;13.00;99.90;;;;;;5075096;28;20463;-60
2023/05/30 05:40:27;;;;;;;7.80;4.10;;;13.00;99.90;;;;;;5075150;28;20443;-61
2023/05/30 05:42:53;;;;;;;10.87;4.27;;;13.00;99.90;;;;;;5075274;28;20438;-61
2023/05/30 05:45:20;;;;;;;11.80;3.97;;;13.10;99.90;;;;;;5075228;28;20450;-60
2023/05/30 05:47:47;;;;;;;9.80;4.10;;;13.10;99.90;;;;;;5074878;28;20478;-60
2023/05/30 05:50:14;;;;;;;9.20;4.10;;;13.10;99.90;;;;;;5074716;28;21079;-61
2023/05/30 05:52:41;;;;;;;12.37;4.37;;;13.10;99.90;;;;;;5074935;28;20512;-61
2023/05/30 05:55:09;;;;;;;14.30;4.60;;;13.10;99.90;;;;;;5074797;28;20443;-57
2023/05/30 05:57:36;;;;;;;11.23;4.47;;;13.00;99.90;;;;;;5074745;28;20469;-61
2023/05/30 06:00:05;;;;;;;10.50;4.40;;;12.90;99.90;;;;;;5074727;28;20444;-60
2023/05/30 06:02:32;;;;;;;9.37;4.50;;;12.90;99.90;;;;;;5074770;28;20482;-60
2023/05/30 06:04:59;;;;;;;13.13;4.13;;;13.00;99.90;;;;;;5074666;28;20964;-60
2023/05/30 06:07:26;;;;;;;6.50;4.10;;;13.10;99.90;;;;;;5074883;28;20457;-60
2023/05/30 06:09:53;;;;;;;9.20;4.70;;;13.20;99.90;;;;;;5074643;28;20462;-60
2023/05/30 06:12:21;;;;;;;15.20;4.47;;;13.20;99.90;;;;;;5074849;28;20435;-60
2023/05/30 06:14:47;;;;;;;12.30;5.00;;;13.10;99.50;;;;;;5074597;28;20472;-59
2023/05/30 06:17:14;;;;;;;8.93;4.53;;;13.00;99.70;;;;;;5074219;28;20453;-61
2023/05/30 06:19:41;;;;;;;14.17;4.67;;;12.90;99.70;;;;;;5074600;28;20447;-59
2023/05/30 06:22:08;;;;;;;7.83;4.63;;;12.90;99.70;;;;;;5073949;28;20941;-59
2023/05/30 06:24:35;;;;;;;10.80;5.70;;;12.80;99.70;;;;;;5074560;28;20473;-59
2023/05/30 06:27:02;;;;;;;12.97;5.37;;;12.80;99.90;;;;;;5074552;28;20447;-60
2023/05/30 06:29:30;;;;;;;6.90;4.10;;;12.80;99.80;;;;;;5074639;28;20463;-60
2023/05/30 06:31:57;;;;;;;9.00;4.50;;;12.70;99.80;;;;;;5074584;28;20484;-59
2023/05/30 06:34:24;;;;;;;7.73;3.80;;;12.70;99.70;;;;;;5072849;28;21010;-60
2023/05/30 06:36:51;;;;;;;13.10;4.73;;;12.70;99.90;;;;;;5074276;28;20446;-59
2023/05/30 06:39:18;;;;;;;13.70;4.93;;;12.80;99.90;;;;;;5073770;28;20834;-58
2023/05/30 06:41:45;;;;;;;14.10;4.70;;;12.90;99.80;;;;;;5074073;28;20442;-59
2023/05/30 06:44:12;;;;;;;10.60;4.20;;;13.00;99.30;;;;;;5074185;28;20442;-59
2023/05/30 06:46:40;;;;;;;8.13;4.40;;;13.10;99.10;;;;;;5074066;28;20443;-61
2023/05/30 06:49:07;;;;;;;16.90;4.53;;;13.30;98.70;;;;;;5074213;28;20470;-59
2023/05/30 06:51:35;;;;;;;16.27;6.07;;;13.40;98.30;;;;;;5073937;28;20485;-60
2023/05/30 06:54:02;;;;;;;8.53;3.73;;;13.60;97.90;;;;;;5073640;28;20462;-61
2023/05/30 06:56:28;;;;;;;13.90;5.27;;;13.80;96.40;;;;;;5073493;28;20929;-60
2023/05/30 06:58:55;;;;;;;10.20;4.43;;;13.90;95.10;;;;;;5073998;28;20822;-60
2023/05/30 07:01:22;;;;;;;8.40;4.23;;;13.80;94.50;;;;;;5073792;28;20949;-60
2023/05/30 07:03:50;;;;;;;8.27;3.83;;;13.70;94.80;;;;;;5073785;28;20449;-59
2023/05/30 07:06:17;;;;;;;7.93;4.70;;;13.80;94.70;;;;;;5073660;28;20470;-60
2023/05/30 07:08:44;;;;;;;11.97;5.40;;;13.90;94.60;;;;;;5073644;28;20463;-60
2023/05/30 07:11:11;;;;;;;9.43;4.80;;;14.30;93.80;;;;;;5073665;28;20487;-60
2023/05/30 07:13:37;;;;;;;10.17;4.40;;;14.80;92.50;;;;;;5074082;28;20812;-60
2023/05/30 07:16:04;;;;;;;7.43;4.80;;;15.30;90.30;;;;;;5073255;28;20759;-60
2023/05/30 07:18:31;;;;;;;9.57;3.93;;;15.70;84.90;;;;;;5073779;28;20463;-60
2023/05/30 07:20:59;;;;;;;9.37;4.20;;;15.70;80.40;;;;;;5073836;28;20479;-60
2023/05/30 07:23:26;;;;;;;9.00;5.30;;;15.60;78.90;;;;;;5073838;28;20443;-61
2023/05/30 07:25:53;;;;;;;16.97;4.63;;;15.60;78.60;;;;;;5073104;28;20797;-61
2023/05/30 07:28:22;;;;;;;11.63;4.13;;;15.50;78.40;;;;;;5073027;28;20470;-61
2023/05/30 07:30:49;;;;;;;11.60;4.10;;;15.50;78.90;;;;;;5073661;28;20475;-61
2023/05/30 07:33:16;;;;;;;10.17;3.43;;;15.50;77.90;;;;;;5073157;28;20506;-60
2023/05/30 07:35:43;;;;;;;12.70;4.70;;;15.50;78.20;;;;;;5073611;28;20493;-61
2023/05/30 07:38:11;;;;;;;9.13;4.20;;;15.40;77.10;;;;;;5073871;28;20471;-61
2023/05/30 07:40:37;;;;;;;7.67;3.83;;;15.30;78.60;;;;;;5072983;28;20542;-61
2023/05/30 07:43:04;;;;;;;15.03;4.77;;;15.30;78.70;;;;;;5076554;28;20443;-60
2023/05/30 07:45:31;;;;;;;14.10;4.30;;;15.50;77.20;;;;;;5072689;28;20454;-61
2023/05/30 07:47:58;;;;;;;7.00;4.20;;;15.50;76.20;;;;;;5073277;28;20515;-60
2023/05/30 07:50:25;;;;;;;11.37;4.00;;;15.30;76.50;;;;;;5072945;28;20439;-60
2023/05/30 07:52:51;;;;;;;6.80;3.80;;;15.10;76.50;;;;;;5073139;28;20457;-60
2023/05/30 07:55:20;;;;;;;8.87;3.70;;;15.10;77.50;;;;;;5073261;28;20447;-61
2023/05/30 07:57:46;;;;;;;8.23;3.57;;;15.20;76.70;;;;;;5073380;28;20468;-61
2023/05/30 08:00:15;;;;;;;7.67;3.80;;;15.20;76.00;;;;;;5073214;28;20443;-61
2023/05/30 08:02:41;;;;;;;10.13;4.20;;;15.30;75.20;;;;;;5072832;28;20876;-61
2023/05/30 08:05:08;;;;;;;11.40;4.17;;;15.40;75.00;;;;;;5072572;28;20955;-60
2023/05/30 08:07:35;;;;;;;9.00;3.87;;;15.50;75.00;;;;;;5072327;28;20471;-60
2023/05/30 08:10:02;;;;;;;6.73;3.80;;;15.80;74.00;;;;;;5072807;28;20551;-59
2023/05/30 08:12:30;;;;;;;9.30;3.67;;;15.90;72.50;;;;;;5072558;28;20483;-60
2023/05/30 08:14:57;;;;;;;8.40;3.93;;;15.80;71.20;;;;;;5072568;28;20881;-60
2023/05/30 08:17:25;;;;;;;9.10;4.13;;;15.90;71.30;;;;;;5073427;28;20500;-62
2023/05/30 08:19:53;;;;;;;6.07;3.73;;;15.80;70.50;;;;;;5073430;28;20542;-62
2023/05/30 08:22:21;;;;;;;8.20;3.47;;;15.90;71.00;;;;;;5072846;28;20470;-59
2023/05/30 08:24:50;;;;;;;9.03;3.57;;;15.80;69.40;;;;;;5072545;28;20451;-59
2023/05/30 08:27:17;;;;;;;6.87;4.33;;;15.80;69.60;;;;;;5072790;28;20827;-61
2023/05/30 08:29:45;;;;;;;8.00;4.17;;;15.90;69.70;;;;;;5073743;28;20479;-59
2023/05/30 08:32:12;;;;;;;5.63;3.63;;;16.00;68.80;;;;;;5075446;28;20514;-60
2023/05/30 08:34:39;;;;;;;9.00;4.17;;;16.10;67.80;;;;;;5073830;28;20941;-61
2023/05/30 08:37:06;;;;;;;8.80;4.70;;;16.10;68.00;;;;;;5072925;28;20835;-58
2023/05/30 08:39:33;;;;;;;7.63;4.10;;;16.30;67.90;;;;;;5071973;28;20439;-60
2023/05/30 08:42:00;;;;;;;6.77;4.20;;;16.50;66.80;;;;;;5072403;28;20999;-60
2023/05/30 08:44:28;;;;;;;9.80;4.70;;;16.40;66.50;;;;;;5073157;28;20455;-61
2023/05/30 08:46:57;;;;;;;8.73;4.30;;;16.40;66.10;;;;;;5073203;28;20457;-59
2023/05/30 08:49:25;;;;;;;11.27;4.40;;;16.30;66.30;;;;;;5071750;28;20969;-60
2023/05/30 08:51:53;;;;;;;7.27;3.93;;;16.40;66.50;;;;;;5072504;28;20518;-60
2023/05/30 08:54:24;;;;;;;5.40;3.37;;;16.50;65.90;;;;;;5072532;28;20446;-60
2023/05/30 08:56:56;;;;;;;11.13;4.00;;;16.40;65.20;;;;;;5073661;28;20913;-61
2023/05/30 08:59:25;;;;;;;10.03;3.97;;;16.30;64.50;;;;;;5076145;28;20470;-60
2023/05/30 09:01:54;;;;;;;6.70;3.30;;;16.20;64.30;;;;;;5075948;28;20502;-60
2023/05/30 09:04:23;;;;;;;7.40;3.17;;;16.30;64.40;;;;;;5076766;28;20443;-61
2023/05/30 09:06:51;;;;;;;6.17;3.47;;;16.30;64.00;;;;;;5076671;28;20858;-59
2023/05/30 09:09:20;;;;;;;7.93;3.50;;;16.40;64.10;;;;;;5075903;28;20812;-61
2023/05/30 09:11:48;;;;;;;9.10;4.17;;;16.60;63.50;;;;;;5076322;28;20502;-60
2023/05/30 09:14:15;;;;;;;8.37;3.87;;;16.70;62.80;;;;;;5075954;28;20993;-60
2023/05/30 09:16:42;;;;;;;7.13;3.70;;;16.70;62.40;;;;;;5075676;28;20443;-61
2023/05/30 09:19:09;;;;;;;11.70;3.53;;;16.70;62.40;;;;;;5076375;28;20470;-61
2023/05/30 09:21:38;;;;;;;6.30;2.77;;;16.70;62.20;;;;;;5076001;28;20439;-60
2023/05/30 09:24:06;;;;;;;6.60;3.43;;;16.80;62.10;;;;;;5075903;28;20527;-61
2023/05/30 09:26:33;;;;;;;8.70;3.20;;;16.80;62.80;;;;;;5076686;28;20960;-60
2023/05/30 09:29:09;;;;;;;6.60;3.80;;;16.90;61.70;;;;;;5091176;22;20488;-60
2023/05/30 09:31:37;;;;;;;6.23;3.23;;;16.80;61.80;;;;;;5058782;28;20475;-62
2023/05/30 09:34:05;;;;;;;5.83;3.30;;;16.80;61.70;;;;;;5058526;28;20556;-60
2023/05/30 09:36:32;;;;;;;8.00;3.67;;;16.80;61.50;;;;;;5059710;28;20776;-61
2023/05/30 09:39:04;;;;;;;7.37;3.27;;;16.70;61.90;;;;;;5059268;28;20470;-60
2023/05/30 09:41:30;;;;;;;7.17;4.00;;;16.70;62.10;;;;;;5059527;28;20903;-60
2023/05/30 09:43:58;;;;;;;8.13;3.60;;;17.00;61.80;;;;;;5059906;28;20458;-61
2023/05/30 09:46:27;;;;;;;6.77;3.33;;;17.50;61.20;;;;;;5058979;28;20491;-59
2023/05/30 09:48:55;;;;;;;6.63;3.20;;;17.80;59.70;;;;;;5059118;28;21008;-60
2023/05/30 09:51:22;;;;;;;6.70;3.17;;;17.90;59.30;;;;;;5059009;28;20570;-58
2023/05/30 09:54:03;;;;;;;6.23;3.53;;;17.80;59.50;;;;;;5059261;28;20440;-59
2023/05/30 09:56:34;;;;;;;8.87;3.03;;;17.90;60.10;;;;;;5057417;28;20428;-61
2023/05/30 09:59:03;;;;;;;5.43;3.20;;;17.80;60.50;;;;;;5058216;28;20464;-61
2023/05/30 10:01:37;;;;;;;3.83;2.50;;;17.80;61.20;;;;;;5057627;28;20441;-60
2023/05/30 10:04:11;;;;;;;5.83;3.27;;;17.90;61.20;;;;;;5057517;28;20428;-60
2023/05/30 10:06:41;;;;;;;4.27;3.00;;;18.00;60.80;;;;;;5058369;28;20437;-60
2023/05/30 10:09:10;;;;;;;5.00;2.60;;;18.10;61.00;;;;;;5058553;28;20460;-60
2023/05/30 10:11:38;;;;;;;6.57;3.07;;;17.90;61.00;;;;;;5057388;28;20853;-61
2023/05/30 10:14:05;;;;;;;3.90;3.10;;;17.80;61.20;;;;;;5056573;28;20514;-59
2023/05/30 10:16:35;;;;;;;4.97;2.67;;;17.60;61.70;;;;;;5056470;28;20505;-61
2023/05/30 10:19:07;;;;;;;6.10;2.40;;;17.40;62.50;;;;;;5056404;28;20543;-61
2023/05/30 10:21:37;;;;;;;4.57;2.10;;;17.40;63.20;;;;;;5056446;28;20461;-60
2023/05/30 10:24:05;;;;;;;5.13;2.70;;;17.50;63.30;;;;;;5056434;28;20447;-60
2023/05/30 10:26:36;;;;;;;3.63;2.53;;;17.70;62.40;;;;;;5055752;28;20444;-59
2023/05/30 10:29:07;;;;;;;4.63;2.90;;;17.70;62.10;;;;;;5055987;28;20986;-59
2023/05/30 10:31:35;;;;;;;4.73;2.70;;;17.80;62.70;;;;;;5056846;28;20463;-60
2023/05/30 10:34:05;;;;;;;5.07;2.47;;;18.20;62.40;;;;;;5056964;28;20444;-60
2023/05/30 10:36:34;;;;;;;4.47;2.53;;;18.40;61.60;;;;;;5056989;28;20448;-64
2023/05/30 10:39:08;;;;;;;3.80;2.10;;;18.50;61.40;;;;;;5056420;28;20562;-59
2023/05/30 10:41:44;;;;;;;3.27;2.30;;;18.60;60.60;;;;;;5055826;28;20489;-59
2023/05/30 10:44:21;;;;;;;3.90;2.60;;;18.60;60.50;;;;;;5055622;28;20767;-60
2023/05/30 10:46:56;;;;;;;4.93;3.03;;;18.50;60.80;;;;;;5056094;28;20431;-59
2023/05/30 10:49:26;;;;;;;4.70;2.10;;;18.60;60.80;;;;;;5056741;28;20785;-60
2023/05/30 10:52:05;;;;;;;5.63;2.63;;;18.60;60.40;;;;;;5055777;28;20464;-59
2023/05/30 10:54:33;;;;;;;3.53;2.10;;;18.60;60.70;;;;;;5055980;28;20444;-61
2023/05/30 10:57:23;;;;;;;3.53;2.00;;;18.50;60.90;;;;;;5055764;28;20458;-61
2023/05/30 10:59:50;;;;;;;4.30;2.27;;;18.20;60.80;;;;;;5056378;28;20476;-62
2023/05/30 11:02:20;;;;;;;3.43;2.30;;;18.20;60.70;;;;;;5057930;28;20478;-61
2023/05/30 11:04:50;;;;;;;2.90;2.20;;;18.20;60.40;;;;;;5055643;28;20921;-60
2023/05/30 11:07:18;;;;;;;3.17;2.30;;;18.10;60.60;;;;;;5055002;28;20936;-61
2023/05/30 11:10:03;;;;;;;3.20;2.50;;;18.20;60.70;;;;;;5054990;28;20510;-60
2023/05/30 11:12:31;;;;;;;3.67;2.60;;;18.40;60.40;;;;;;5054899;28;20468;-60
2023/05/30 11:14:59;;;;;;;3.40;2.40;;;18.20;60.20;;;;;;5055483;28;20451;-60
2023/05/30 11:17:31;;;;;;;4.90;2.53;;;18.00;60.60;;;;;;5055214;28;20447;-61
2023/05/30 11:20:07;;;;;;;4.97;2.87;;;17.80;61.40;;;;;;5055108;28;20464;-60
2023/05/30 11:22:34;;;;;;;5.07;2.60;;;17.80;62.70;;;;;;5054609;28;20463;-60
2023/05/30 11:25:23;;;;;;;5.40;3.57;;;17.90;62.10;;;;;;5054896;28;20448;-59
2023/05/30 11:28:12;;;;;;;5.53;2.70;;;18.00;62.00;;;;;;5054794;28;20439;-60
2023/05/30 11:30:44;;;;;;;5.53;3.33;;;18.00;62.40;;;;;;5055067;28;20429;-59
2023/05/30 11:33:11;;;;;;;3.47;3.07;;;18.20;62.70;;;;;;5054596;28;20523;-60
2023/05/30 11:35:38;;;;;;;5.60;3.07;;;18.40;62.40;;;;;;5055381;28;20444;-62
2023/05/30 11:38:06;;;;;;;6.30;3.40;;;18.50;61.90;;;;;;5055783;28;20559;-61
2023/05/30 11:40:33;;;;;;;7.50;3.40;;;18.40;61.80;;;;;;5055596;28;20938;-60
2023/05/30 11:43:00;;;;;;;4.83;3.60;;;18.40;62.10;;;;;;5056295;28;20811;-60
2023/05/30 11:45:30;;;;;;;5.17;3.13;;;18.40;62.10;;;;;;5057354;28;20459;-59
2023/05/30 11:48:04;;;;;;;3.17;2.87;;;18.40;61.80;;;;;;5056093;28;20432;-61
2023/05/30 11:50:30;;;;;;;4.70;3.10;;;18.60;61.20;;;;;;5056363;28;20432;-61
2023/05/30 11:52:57;;;;;;;3.03;2.67;;;18.60;60.50;;;;;;5055876;28;20484;-61
2023/05/30 11:55:24;;;;;;;3.20;2.90;;;18.40;61.10;;;;;;5055913;28;20471;-60
2023/05/30 11:57:53;;;;;;;6.90;3.07;;;18.70;61.00;;;;;;5055833;28;20448;-60
2023/05/30 12:00:20;;;;;;;4.73;3.30;;;19.00;59.90;;;;;;5054707;28;20949;-62
2023/05/30 12:02:48;;;;;;;4.90;3.87;;;18.80;60.00;;;;;;5055366;28;20444;-60
2023/05/30 12:05:15;;;;;;;6.33;3.03;;;18.60;60.80;;;;;;5055875;28;20448;-60
2023/05/30 12:07:42;;;;;;;7.00;3.43;;;18.60;61.10;;;;;;5055176;28;20457;-61
2023/05/30 12:10:09;;;;;;;5.40;3.47;;;18.50;61.30;;;;;;5056328;28;20444;-59
2023/05/30 12:12:36;;;;;;;4.63;3.07;;;18.60;61.60;;;;;;5055700;28;20486;-59
2023/05/30 12:15:04;;;;;;;4.30;3.40;;;18.70;61.00;;;;;;5055814;28;20538;-60
2023/05/30 12:17:31;;;;;;;4.73;4.00;;;18.60;61.10;;;;;;5055477;28;20440;-60
2023/05/30 12:20:09;;;;;;;5.53;3.20;;;18.30;61.70;;;;;;5056056;28;20472;-63
2023/05/30 12:22:36;;;;;;;5.67;3.47;;;18.60;61.10;;;;;;5056307;28;20432;-60
2023/05/30 12:25:08;;;;;;;3.10;2.80;;;18.80;60.90;;;;;;5055125;28;20443;-61
2023/05/30 12:27:35;;;;;;;6.00;3.93;;;18.90;60.10;;;;;;5054922;28;20918;-62
2023/05/30 12:30:11;;;;;;;5.43;4.20;;;19.20;59.70;;;;;;5054883;28;20559;-62
2023/05/30 12:32:38;;;;;;;5.60;3.97;;;19.70;59.20;;;;;;5056700;28;20475;-61
2023/05/30 12:35:07;;;;;;;7.57;3.77;;;20.10;58.00;;;;;;5058639;28;20440;-58
2023/05/30 12:37:34;;;;;;;4.60;3.90;;;20.40;57.20;;;;;;5057961;28;20975;-60
2023/05/30 12:40:02;;;;;;;5.13;4.17;;;20.30;56.80;;;;;;5057600;28;20471;-59
2023/05/30 12:42:31;;;;;;;6.03;3.67;;;20.30;56.80;;;;;;5057253;28;20440;-62
2023/05/30 12:44:59;;;;;;;4.63;3.27;;;20.20;56.70;;;;;;5057731;28;20534;-60
2023/05/30 12:47:27;;;;;;;3.87;3.50;;;20.10;56.70;;;;;;5057547;28;20447;-61
2023/05/30 12:49:54;;;;;;;8.30;4.43;;;19.80;57.60;;;;;;5058019;28;20464;-60
2023/05/30 12:52:24;;;;;;;6.33;3.70;;;19.40;57.70;;;;;;5057623;28;20484;-60
2023/05/30 12:54:52;;;;;;;6.20;3.93;;;19.20;58.40;;;;;;5057878;28;20534;-61